sensor_id;sensor_type;location;lat;lon;timestamp;pressure;altitude;pressure_sealevel;temperature;humidity
76337;BME280;65157;50.082;18.178;2023-01-29T00:00:34;100375.86;;;-2.42;78.86
76337;BME280;65157;50.082;18.178;2023-01-29T00:03:21;100377.29;;;-2.47;79.08
76337;BME280;65157;50.082;18.178;2023-01-29T00:05:47;100372.23;;;-2.48;79.36
76337;BME280;65157;50.082;18.178;2023-01-29T00:08:14;100365.96;;;-2.50;79.11
76337;BME280;65157;50.082;18.178;2023-01-29T00:10:40;100366.33;;;-2.50;79.25
76337;BME280;65157;50.082;18.178;2023-01-29T00:13:07;100358.00;;;-2.50;79.58
76337;BME280;65157;50.082;18.178;2023-01-29T00:15:33;100362.77;;;-2.41;79.13
76337;BME280;65157;50.082;18.178;2023-01-29T00:18:00;100370.14;;;-2.37;78.95
76337;BME280;65157;50.082;18.178;2023-01-29T00:20:27;100367.05;;;-2.36;78.61
76337;BME280;65157;50.082;18.178;2023-01-29T00:22:53;100373.54;;;-2.38;78.79
76337;BME280;65157;50.082;18.178;2023-01-29T00:25:20;100374.27;;;-2.44;78.75
76337;BME280;65157;50.082;18.178;2023-01-29T00:27:46;100379.45;;;-2.44;78.79
76337;BME280;65157;50.082;18.178;2023-01-29T00:30:13;100386.30;;;-2.46;77.04
76337;BME280;65157;50.082;18.178;2023-01-29T00:32:44;100380.80;;;-2.45;77.78
76337;BME280;65157;50.082;18.178;2023-01-29T00:35:11;100383.88;;;-2.40;77.44
76337;BME280;65157;50.082;18.178;2023-01-29T00:37:37;100387.23;;;-2.38;77.63
76337;BME280;65157;50.082;18.178;2023-01-29T00:40:04;100392.49;;;-2.34;77.16
76337;BME280;65157;50.082;18.178;2023-01-29T00:42:31;100383.80;;;-2.36;76.42
76337;BME280;65157;50.082;18.178;2023-01-29T00:45:16;100380.92;;;-2.34;76.64
76337;BME280;65157;50.082;18.178;2023-01-29T00:47:43;100378.96;;;-2.30;75.74
76337;BME280;65157;50.082;18.178;2023-01-29T00:50:10;100378.61;;;-2.23;75.84
76337;BME280;65157;50.082;18.178;2023-01-29T00:52:38;100377.33;;;-2.20;75.43
76337;BME280;65157;50.082;18.178;2023-01-29T00:55:08;100382.32;;;-2.20;75.44
76337;BME280;65157;50.082;18.178;2023-01-29T00:57:36;100384.41;;;-2.20;74.72
76337;BME280;65157;50.082;18.178;2023-01-29T01:00:05;100382.98;;;-2.22;75.53
76337;BME280;65157;50.082;18.178;2023-01-29T01:02:32;100381.99;;;-2.19;75.23
76337;BME280;65157;50.082;18.178;2023-01-29T01:05:18;100382.06;;;-2.24;75.30
76337;BME280;65157;50.082;18.178;2023-01-29T01:07:49;100379.52;;;-2.28;74.82
76337;BME280;65157;50.082;18.178;2023-01-29T01:10:26;100386.61;;;-2.29;75.19
76337;BME280;65157;50.082;18.178;2023-01-29T01:12:55;100387.36;;;-2.26;75.53
76337;BME280;65157;50.082;18.178;2023-01-29T01:15:27;100385.29;;;-2.19;75.44
76337;BME280;65157;50.082;18.178;2023-01-29T01:17:57;100383.05;;;-2.19;74.85
76337;BME280;65157;50.082;18.178;2023-01-29T01:20:26;100382.20;;;-2.19;75.11
76337;BME280;65157;50.082;18.178;2023-01-29T01:22:53;100381.36;;;-2.18;74.93
76337;BME280;65157;50.082;18.178;2023-01-29T01:25:22;100377.63;;;-2.22;74.74
76337;BME280;65157;50.082;18.178;2023-01-29T01:27:56;100374.33;;;-2.22;74.89
76337;BME280;65157;50.082;18.178;2023-01-29T01:30:23;100374.95;;;-2.25;73.61
76337;BME280;65157;50.082;18.178;2023-01-29T01:32:50;100371.95;;;-2.27;74.37
76337;BME280;65157;50.082;18.178;2023-01-29T01:35:17;100364.27;;;-2.23;74.37
76337;BME280;65157;50.082;18.178;2023-01-29T01:37:44;100363.77;;;-2.22;74.45
76337;BME280;65157;50.082;18.178;2023-01-29T01:40:14;100365.35;;;-2.22;73.86
76337;BME280;65157;50.082;18.178;2023-01-29T01:42:54;100367.64;;;-2.20;74.50
76337;BME280;65157;50.082;18.178;2023-01-29T01:47:58;100357.59;;;-2.21;74.29
76337;BME280;65157;50.082;18.178;2023-01-29T01:50:43;100351.30;;;-2.23;74.12
76337;BME280;65157;50.082;18.178;2023-01-29T01:53:14;100349.13;;;-2.27;74.73
76337;BME280;65157;50.082;18.178;2023-01-29T01:55:47;100355.02;;;-2.26;74.89
76337;BME280;65157;50.082;18.178;2023-01-29T01:58:32;100349.84;;;-2.26;73.96
76337;BME280;65157;50.082;18.178;2023-01-29T02:01:00;100345.96;;;-2.28;74.41
76337;BME280;65157;50.082;18.178;2023-01-29T02:03:28;100342.58;;;-2.26;74.42
76337;BME280;65157;50.082;18.178;2023-01-29T02:06:14;100343.28;;;-2.25;74.08
76337;BME280;65157;50.082;18.178;2023-01-29T02:09:04;100340.77;;;-2.22;73.99
76337;BME280;65157;50.082;18.178;2023-01-29T02:11:51;100338.94;;;-2.20;74.07
76337;BME280;65157;50.082;18.178;2023-01-29T02:14:17;100339.35;;;-2.18;74.36
76337;BME280;65157;50.082;18.178;2023-01-29T02:16:44;100338.50;;;-2.17;73.66
76337;BME280;65157;50.082;18.178;2023-01-29T02:22:14;100336.29;;;-2.15;74.27
76337;BME280;65157;50.082;18.178;2023-01-29T02:28:11;100325.71;;;-2.17;74.07
76337;BME280;65157;50.082;18.178;2023-01-29T02:34:05;100312.43;;;-2.22;73.16
76337;BME280;65157;50.082;18.178;2023-01-29T02:36:50;100312.75;;;-2.23;73.09
76337;BME280;65157;50.082;18.178;2023-01-29T02:39:39;100312.12;;;-2.20;72.90
76337;BME280;65157;50.082;18.178;2023-01-29T02:42:21;100307.30;;;-2.19;73.23
76337;BME280;65157;50.082;18.178;2023-01-29T02:45:14;100309.59;;;-2.18;73.82
76337;BME280;65157;50.082;18.178;2023-01-29T02:47:59;100314.08;;;-2.19;73.90
76337;BME280;65157;50.082;18.178;2023-01-29T02:50:38;100316.60;;;-2.14;74.18
76337;BME280;65157;50.082;18.178;2023-01-29T02:55:51;100325.44;;;-2.20;73.00
76337;BME280;65157;50.082;18.178;2023-01-29T03:00:52;100325.55;;;-2.23;73.62
76337;BME280;65157;50.082;18.178;2023-01-29T03:03:29;100329.41;;;-2.21;72.97
76337;BME280;65157;50.082;18.178;2023-01-29T03:06:47;100332.52;;;-2.21;72.77
76337;BME280;65157;50.082;18.178;2023-01-29T03:08:58;100330.22;;;-2.22;72.46
76337;BME280;65157;50.082;18.178;2023-01-29T03:11:31;100332.70;;;-2.21;73.16
76337;BME280;65157;50.082;18.178;2023-01-29T03:14:07;100337.27;;;-2.18;73.42
76337;BME280;65157;50.082;18.178;2023-01-29T03:16:43;100335.20;;;-2.17;73.80
76337;BME280;65157;50.082;18.178;2023-01-29T03:19:14;100341.11;;;-2.16;73.54
76337;BME280;65157;50.082;18.178;2023-01-29T03:21:49;100340.67;;;-2.19;73.21
76337;BME280;65157;50.082;18.178;2023-01-29T03:27:50;100343.81;;;-2.25;73.40
76337;BME280;65157;50.082;18.178;2023-01-29T03:30:41;100347.05;;;-2.26;73.46
76337;BME280;65157;50.082;18.178;2023-01-29T03:33:30;100338.52;;;-2.29;73.39
76337;BME280;65157;50.082;18.178;2023-01-29T03:36:05;100341.00;;;-2.27;73.95
76337;BME280;65157;50.082;18.178;2023-01-29T03:38:34;100347.14;;;-2.24;74.04
76337;BME280;65157;50.082;18.178;2023-01-29T03:41:04;100344.27;;;-2.21;73.70
76337;BME280;65157;50.082;18.178;2023-01-29T03:43:42;100348.33;;;-2.18;73.24
76337;BME280;65157;50.082;18.178;2023-01-29T03:46:38;100347.83;;;-2.17;72.78
76337;BME280;65157;50.082;18.178;2023-01-29T03:49:16;100336.95;;;-2.16;72.74
76337;BME280;65157;50.082;18.178;2023-01-29T03:52:17;100337.95;;;-2.18;72.39
76337;BME280;65157;50.082;18.178;2023-01-29T03:54:55;100335.98;;;-2.21;72.06
76337;BME280;65157;50.082;18.178;2023-01-29T03:57:59;100326.05;;;-2.23;72.40
76337;BME280;65157;50.082;18.178;2023-01-29T04:00:33;100327.37;;;-2.26;72.35
76337;BME280;65157;50.082;18.178;2023-01-29T04:03:12;100325.59;;;-2.28;72.53
76337;BME280;65157;50.082;18.178;2023-01-29T04:05:49;100321.56;;;-2.30;72.46
76337;BME280;65157;50.082;18.178;2023-01-29T04:08:26;100320.44;;;-2.33;72.04
76337;BME280;65157;50.082;18.178;2023-01-29T04:10:56;100317.80;;;-2.36;72.18
76337;BME280;65157;50.082;18.178;2023-01-29T04:13:26;100316.45;;;-2.34;72.19
76337;BME280;65157;50.082;18.178;2023-01-29T04:15:55;100316.07;;;-2.28;72.46
76337;BME280;65157;50.082;18.178;2023-01-29T04:18:24;100318.36;;;-2.26;72.18
76337;BME280;65157;50.082;18.178;2023-01-29T04:20:51;100312.38;;;-2.30;71.17
76337;BME280;65157;50.082;18.178;2023-01-29T04:23:23;100311.05;;;-2.29;70.89
76337;BME280;65157;50.082;18.178;2023-01-29T04:29:07;100294.69;;;-2.32;71.84
76337;BME280;65157;50.082;18.178;2023-01-29T04:31:45;100292.69;;;-2.37;72.18
76337;BME280;65157;50.082;18.178;2023-01-29T04:37:03;100280.73;;;-2.38;71.70
76337;BME280;65157;50.082;18.178;2023-01-29T04:39:37;100270.86;;;-2.38;71.68
76337;BME280;65157;50.082;18.178;2023-01-29T04:42:34;100266.48;;;-2.34;72.03
76337;BME280;65157;50.082;18.178;2023-01-29T04:45:03;100258.98;;;-2.30;72.14
76337;BME280;65157;50.082;18.178;2023-01-29T04:47:58;100256.04;;;-2.23;71.76
76337;BME280;65157;50.082;18.178;2023-01-29T04:50:39;100253.61;;;-2.23;71.86
76337;BME280;65157;50.082;18.178;2023-01-29T04:53:23;100251.20;;;-2.23;72.04
76337;BME280;65157;50.082;18.178;2023-01-29T04:56:06;100243.84;;;-2.20;72.27
76337;BME280;65157;50.082;18.178;2023-01-29T04:58:40;100242.15;;;-2.18;72.26
76337;BME280;65157;50.082;18.178;2023-01-29T05:01:13;100238.30;;;-2.20;72.44
76337;BME280;65157;50.082;18.178;2023-01-29T05:03:44;100234.98;;;-2.22;72.22
76337;BME280;65157;50.082;18.178;2023-01-29T05:06:13;100239.04;;;-2.25;72.36
76337;BME280;65157;50.082;18.178;2023-01-29T05:08:41;100249.13;;;-2.30;72.43
76337;BME280;65157;50.082;18.178;2023-01-29T05:11:08;100251.27;;;-2.34;72.53
76337;BME280;65157;50.082;18.178;2023-01-29T05:13:37;100254.70;;;-2.35;72.60
76337;BME280;65157;50.082;18.178;2023-01-29T05:16:18;100260.06;;;-2.35;72.70
76337;BME280;65157;50.082;18.178;2023-01-29T05:18:47;100259.37;;;-2.35;72.72
76337;BME280;65157;50.082;18.178;2023-01-29T05:21:14;100262.22;;;-2.31;72.89
76337;BME280;65157;50.082;18.178;2023-01-29T05:23:41;100259.13;;;-2.24;72.90
76337;BME280;65157;50.082;18.178;2023-01-29T05:26:19;100252.30;;;-2.20;72.74
76337;BME280;65157;50.082;18.178;2023-01-29T05:29:05;100253.79;;;-2.23;72.62
76337;BME280;65157;50.082;18.178;2023-01-29T05:31:32;100255.34;;;-2.23;72.64
76337;BME280;65157;50.082;18.178;2023-01-29T05:33:58;100252.51;;;-2.19;72.71
76337;BME280;65157;50.082;18.178;2023-01-29T05:36:25;100251.39;;;-2.22;72.09
76337;BME280;65157;50.082;18.178;2023-01-29T05:38:52;100252.15;;;-2.26;72.26
76337;BME280;65157;50.082;18.178;2023-01-29T05:41:19;100248.30;;;-2.28;72.70
76337;BME280;65157;50.082;18.178;2023-01-29T05:43:46;100250.39;;;-2.27;72.78
76337;BME280;65157;50.082;18.178;2023-01-29T05:46:12;100247.73;;;-2.30;72.87
76337;BME280;65157;50.082;18.178;2023-01-29T05:48:39;100251.84;;;-2.31;72.88
76337;BME280;65157;50.082;18.178;2023-01-29T05:51:06;100251.17;;;-2.31;73.32
76337;BME280;65157;50.082;18.178;2023-01-29T05:53:32;100250.34;;;-2.30;73.38
76337;BME280;65157;50.082;18.178;2023-01-29T05:56:00;100253.46;;;-2.30;73.40
76337;BME280;65157;50.082;18.178;2023-01-29T05:58:32;100255.30;;;-2.32;73.28
76337;BME280;65157;50.082;18.178;2023-01-29T06:01:12;100258.33;;;-2.35;73.59
76337;BME280;65157;50.082;18.178;2023-01-29T06:03:39;100259.55;;;-2.34;73.50
76337;BME280;65157;50.082;18.178;2023-01-29T06:06:06;100258.46;;;-2.30;73.37
76337;BME280;65157;50.082;18.178;2023-01-29T06:08:33;100258.19;;;-2.27;73.44
76337;BME280;65157;50.082;18.178;2023-01-29T06:11:00;100259.61;;;-2.25;73.56
76337;BME280;65157;50.082;18.178;2023-01-29T06:13:27;100256.05;;;-2.22;73.34
76337;BME280;65157;50.082;18.178;2023-01-29T06:15:53;100258.73;;;-2.25;73.09
76337;BME280;65157;50.082;18.178;2023-01-29T06:18:20;100253.65;;;-2.28;73.59
76337;BME280;65157;50.082;18.178;2023-01-29T06:20:46;100257.18;;;-2.25;73.78
76337;BME280;65157;50.082;18.178;2023-01-29T06:23:13;100268.10;;;-2.25;73.46
76337;BME280;65157;50.082;18.178;2023-01-29T06:25:39;100271.23;;;-2.31;73.31
76337;BME280;65157;50.082;18.178;2023-01-29T06:28:06;100276.64;;;-2.35;73.55
76337;BME280;65157;50.082;18.178;2023-01-29T06:30:33;100278.73;;;-2.41;73.33
76337;BME280;65157;50.082;18.178;2023-01-29T06:32:59;100281.79;;;-2.43;73.79
76337;BME280;65157;50.082;18.178;2023-01-29T06:35:27;100279.08;;;-2.41;73.67
76337;BME280;65157;50.082;18.178;2023-01-29T06:37:55;100280.59;;;-2.37;73.79
76337;BME280;65157;50.082;18.178;2023-01-29T06:40:22;100284.46;;;-2.34;74.18
76337;BME280;65157;50.082;18.178;2023-01-29T06:42:48;100285.64;;;-2.36;73.56
76337;BME280;65157;50.082;18.178;2023-01-29T06:45:15;100282.96;;;-2.39;73.68
76337;BME280;65157;50.082;18.178;2023-01-29T06:47:41;100280.98;;;-2.41;73.71
76337;BME280;65157;50.082;18.178;2023-01-29T06:50:08;100284.16;;;-2.45;73.82
76337;BME280;65157;50.082;18.178;2023-01-29T06:52:35;100288.02;;;-2.49;74.05
76337;BME280;65157;50.082;18.178;2023-01-29T06:55:02;100297.52;;;-2.50;73.90
76337;BME280;65157;50.082;18.178;2023-01-29T06:57:28;100303.34;;;-2.52;73.83
76337;BME280;65157;50.082;18.178;2023-01-29T06:59:55;100306.61;;;-2.52;74.24
76337;BME280;65157;50.082;18.178;2023-01-29T07:02:22;100305.80;;;-2.50;73.92
76337;BME280;65157;50.082;18.178;2023-01-29T07:04:48;100300.30;;;-2.49;74.26
76337;BME280;65157;50.082;18.178;2023-01-29T07:07:15;100305.80;;;-2.50;73.67
76337;BME280;65157;50.082;18.178;2023-01-29T07:09:41;100304.38;;;-2.51;73.83
76337;BME280;65157;50.082;18.178;2023-01-29T07:12:09;100303.83;;;-2.53;73.50
76337;BME280;65157;50.082;18.178;2023-01-29T07:14:36;100308.08;;;-2.55;73.59
76337;BME280;65157;50.082;18.178;2023-01-29T07:17:03;100312.02;;;-2.56;73.83
76337;BME280;65157;50.082;18.178;2023-01-29T07:19:29;100319.38;;;-2.60;73.66
76337;BME280;65157;50.082;18.178;2023-01-29T07:21:56;100317.67;;;-2.58;73.88
76337;BME280;65157;50.082;18.178;2023-01-29T07:24:23;100313.14;;;-2.53;73.99
76337;BME280;65157;50.082;18.178;2023-01-29T07:26:50;100309.13;;;-2.49;73.42
76337;BME280;65157;50.082;18.178;2023-01-29T07:29:16;100305.25;;;-2.45;73.49
76337;BME280;65157;50.082;18.178;2023-01-29T07:31:43;100302.27;;;-2.40;73.86
76337;BME280;65157;50.082;18.178;2023-01-29T07:34:10;100308.08;;;-2.36;73.34
76337;BME280;65157;50.082;18.178;2023-01-29T07:36:36;100313.20;;;-2.39;72.86
76337;BME280;65157;50.082;18.178;2023-01-29T07:39:03;100318.48;;;-2.41;72.94
76337;BME280;65157;50.082;18.178;2023-01-29T07:41:29;100317.98;;;-2.48;72.54
76337;BME280;65157;50.082;18.178;2023-01-29T07:43:56;100319.55;;;-2.54;73.17
76337;BME280;65157;50.082;18.178;2023-01-29T07:46:22;100306.31;;;-2.57;73.44
76337;BME280;65157;50.082;18.178;2023-01-29T07:48:49;100316.29;;;-2.53;73.44
76337;BME280;65157;50.082;18.178;2023-01-29T07:51:16;100318.37;;;-2.52;73.61
76337;BME280;65157;50.082;18.178;2023-01-29T07:53:43;100325.16;;;-2.56;73.76
76337;BME280;65157;50.082;18.178;2023-01-29T07:56:10;100327.36;;;-2.58;74.01
76337;BME280;65157;50.082;18.178;2023-01-29T07:58:36;100331.33;;;-2.59;73.87
76337;BME280;65157;50.082;18.178;2023-01-29T08:01:07;100330.31;;;-2.58;74.09
76337;BME280;65157;50.082;18.178;2023-01-29T08:03:34;100329.32;;;-2.62;73.84
76337;BME280;65157;50.082;18.178;2023-01-29T08:06:02;100339.36;;;-2.62;73.99
76337;BME280;65157;50.082;18.178;2023-01-29T08:08:29;100344.19;;;-2.62;73.98
76337;BME280;65157;50.082;18.178;2023-01-29T08:10:55;100344.82;;;-2.58;74.25
76337;BME280;65157;50.082;18.178;2023-01-29T08:13:22;100343.91;;;-2.54;73.66
76337;BME280;65157;50.082;18.178;2023-01-29T08:15:49;100336.20;;;-2.51;73.49
76337;BME280;65157;50.082;18.178;2023-01-29T08:18:15;100336.34;;;-2.53;73.29
76337;BME280;65157;50.082;18.178;2023-01-29T08:20:42;100336.84;;;-2.53;73.24
76337;BME280;65157;50.082;18.178;2023-01-29T08:23:12;100340.05;;;-2.55;73.23
76337;BME280;65157;50.082;18.178;2023-01-29T08:25:40;100341.05;;;-2.57;73.20
76337;BME280;65157;50.082;18.178;2023-01-29T08:28:07;100349.54;;;-2.56;73.53
76337;BME280;65157;50.082;18.178;2023-01-29T08:30:34;100359.60;;;-2.55;73.49
76337;BME280;65157;50.082;18.178;2023-01-29T08:33:02;100364.11;;;-2.54;73.44
76337;BME280;65157;50.082;18.178;2023-01-29T08:35:29;100370.47;;;-2.55;73.23
76337;BME280;65157;50.082;18.178;2023-01-29T08:38:00;100360.10;;;-2.55;72.87
76337;BME280;65157;50.082;18.178;2023-01-29T08:40:31;100358.98;;;-2.52;72.65
76337;BME280;65157;50.082;18.178;2023-01-29T08:43:03;100358.35;;;-2.50;72.67
76337;BME280;65157;50.082;18.178;2023-01-29T08:45:35;100361.69;;;-2.48;72.77
76337;BME280;65157;50.082;18.178;2023-01-29T08:48:02;100364.89;;;-2.45;72.65
76337;BME280;65157;50.082;18.178;2023-01-29T08:50:29;100367.88;;;-2.43;72.72
76337;BME280;65157;50.082;18.178;2023-01-29T08:52:57;100368.63;;;-2.41;72.58
76337;BME280;65157;50.082;18.178;2023-01-29T08:55:25;100365.16;;;-2.41;72.51
76337;BME280;65157;50.082;18.178;2023-01-29T08:57:52;100361.25;;;-2.39;72.86
76337;BME280;65157;50.082;18.178;2023-01-29T09:00:19;100352.47;;;-2.38;72.62
76337;BME280;65157;50.082;18.178;2023-01-29T09:02:45;100349.62;;;-2.35;72.88
76337;BME280;65157;50.082;18.178;2023-01-29T09:05:12;100343.70;;;-2.30;72.22
76337;BME280;65157;50.082;18.178;2023-01-29T09:07:39;100340.54;;;-2.25;72.06
76337;BME280;65157;50.082;18.178;2023-01-29T09:10:05;100334.55;;;-2.22;71.81
76337;BME280;65157;50.082;18.178;2023-01-29T09:12:32;100334.95;;;-2.20;71.95
76337;BME280;65157;50.082;18.178;2023-01-29T09:14:59;100327.27;;;-2.17;71.99
76337;BME280;65157;50.082;18.178;2023-01-29T09:17:25;100324.16;;;-2.10;72.51
76337;BME280;65157;50.082;18.178;2023-01-29T09:19:52;100319.33;;;-2.03;72.49
76337;BME280;65157;50.082;18.178;2023-01-29T09:22:19;100318.63;;;-1.96;72.46
76337;BME280;65157;50.082;18.178;2023-01-29T09:24:45;100319.41;;;-1.86;72.48
76337;BME280;65157;50.082;18.178;2023-01-29T09:27:12;100323.36;;;-1.73;71.63
76337;BME280;65157;50.082;18.178;2023-01-29T09:29:39;100320.85;;;-1.62;70.77
76337;BME280;65157;50.082;18.178;2023-01-29T09:32:05;100325.89;;;-1.54;69.89
76337;BME280;65157;50.082;18.178;2023-01-29T09:34:32;100328.70;;;-1.52;68.35
76337;BME280;65157;50.082;18.178;2023-01-29T09:36:59;100330.33;;;-1.49;68.76
76337;BME280;65157;50.082;18.178;2023-01-29T09:39:25;100332.76;;;-1.49;68.18
76337;BME280;65157;50.082;18.178;2023-01-29T09:42:02;100327.52;;;-1.50;68.05
76337;BME280;65157;50.082;18.178;2023-01-29T09:45:05;100327.99;;;-1.45;68.72
76337;BME280;65157;50.082;18.178;2023-01-29T09:47:37;100322.06;;;-1.39;67.25
76337;BME280;65157;50.082;18.178;2023-01-29T09:50:20;100322.41;;;-1.39;66.71
76337;BME280;65157;50.082;18.178;2023-01-29T09:52:53;100323.73;;;-1.42;66.45
76337;BME280;65157;50.082;18.178;2023-01-29T09:55:28;100323.36;;;-1.43;66.27
76337;BME280;65157;50.082;18.178;2023-01-29T09:57:58;100320.00;;;-1.47;65.49
76337;BME280;65157;50.082;18.178;2023-01-29T10:00:37;100314.70;;;-1.51;66.27
76337;BME280;65157;50.082;18.178;2023-01-29T10:09:46;100302.78;;;-1.73;64.48
76337;BME280;65157;50.082;18.178;2023-01-29T10:26:23;100246.08;;;-1.38;66.23
76337;BME280;65157;50.082;18.178;2023-01-29T10:28:54;100236.48;;;-1.34;65.79
76337;BME280;65157;50.082;18.178;2023-01-29T10:31:34;100234.27;;;-1.24;65.92
76337;BME280;65157;50.082;18.178;2023-01-29T10:34:31;100228.16;;;-1.17;64.36
76337;BME280;65157;50.082;18.178;2023-01-29T10:37:00;100225.31;;;-1.13;64.13
76337;BME280;65157;50.082;18.178;2023-01-29T10:39:37;100224.42;;;-1.14;63.70
76337;BME280;65157;50.082;18.178;2023-01-29T10:47:26;100202.33;;;-0.83;64.82
76337;BME280;65157;50.082;18.178;2023-01-29T10:50:17;100193.42;;;-0.77;64.33
76337;BME280;65157;50.082;18.178;2023-01-29T10:56:08;100174.79;;;-0.21;64.01
76337;BME280;65157;50.082;18.178;2023-01-29T10:58:46;100173.48;;;0.07;65.00
76337;BME280;65157;50.082;18.178;2023-01-29T11:01:14;100173.04;;;0.36;63.43
76337;BME280;65157;50.082;18.178;2023-01-29T11:03:41;100173.48;;;0.58;63.19
76337;BME280;65157;50.082;18.178;2023-01-29T11:08:42;100161.22;;;1.09;64.34
76337;BME280;65157;50.082;18.178;2023-01-29T11:11:13;100141.98;;;1.33;61.50
76337;BME280;65157;50.082;18.178;2023-01-29T11:13:52;100144.55;;;1.48;60.69
76337;BME280;65157;50.082;18.178;2023-01-29T11:16:20;100143.43;;;1.59;60.83
76337;BME280;65157;50.082;18.178;2023-01-29T11:18:56;100144.08;;;1.75;58.25
76337;BME280;65157;50.082;18.178;2023-01-29T11:21:23;100139.64;;;1.87;59.12
76337;BME280;65157;50.082;18.178;2023-01-29T11:24:12;100137.61;;;1.96;57.68
76337;BME280;65157;50.082;18.178;2023-01-29T11:26:43;100137.46;;;2.01;58.16
76337;BME280;65157;50.082;18.178;2023-01-29T11:29:36;100131.98;;;2.13;58.77
76337;BME280;65157;50.082;18.178;2023-01-29T11:32:06;100124.08;;;2.36;56.97
76337;BME280;65157;50.082;18.178;2023-01-29T11:34:33;100118.37;;;2.45;57.53
76337;BME280;65157;50.082;18.178;2023-01-29T11:37:02;100108.45;;;2.45;56.89
76337;BME280;65157;50.082;18.178;2023-01-29T11:39:31;100103.20;;;2.43;56.70
76337;BME280;65157;50.082;18.178;2023-01-29T11:42:02;100103.73;;;2.42;57.00
76337;BME280;65157;50.082;18.178;2023-01-29T11:49:47;100085.68;;;2.64;56.19
76337;BME280;65157;50.082;18.178;2023-01-29T11:52:17;100095.77;;;2.60;55.45
76337;BME280;65157;50.082;18.178;2023-01-29T11:54:50;100096.48;;;2.58;56.07
76337;BME280;65157;50.082;18.178;2023-01-29T11:57:36;100092.63;;;2.57;56.43
76337;BME280;65157;50.082;18.178;2023-01-29T12:00:19;100083.41;;;2.58;57.16
76337;BME280;65157;50.082;18.178;2023-01-29T12:02:56;100083.23;;;2.60;56.93
76337;BME280;65157;50.082;18.178;2023-01-29T12:05:24;100086.17;;;2.56;56.43
76337;BME280;65157;50.082;18.178;2023-01-29T12:07:55;100084.24;;;2.51;57.30
76337;BME280;65157;50.082;18.178;2023-01-29T12:13:10;100085.79;;;2.48;57.28
76337;BME280;65157;50.082;18.178;2023-01-29T12:15:47;100082.62;;;2.35;55.56
76337;BME280;65157;50.082;18.178;2023-01-29T12:18:35;100080.80;;;2.20;56.32
76337;BME280;65157;50.082;18.178;2023-01-29T12:21:09;100076.60;;;2.15;57.06
76337;BME280;65157;50.082;18.178;2023-01-29T12:26:14;100073.09;;;2.06;57.40
76337;BME280;65157;50.082;18.178;2023-01-29T12:29:06;100075.48;;;1.99;56.38
76337;BME280;65157;50.082;18.178;2023-01-29T12:32:03;100067.92;;;1.86;57.18
76337;BME280;65157;50.082;18.178;2023-01-29T12:34:53;100066.95;;;1.71;56.81
76337;BME280;65157;50.082;18.178;2023-01-29T12:37:36;100054.33;;;1.57;56.69
76337;BME280;65157;50.082;18.178;2023-01-29T12:40:15;100060.05;;;1.55;57.87
76337;BME280;65157;50.082;18.178;2023-01-29T12:42:49;100058.69;;;1.58;58.27
76337;BME280;65157;50.082;18.178;2023-01-29T12:45:23;100053.83;;;1.60;58.43
76337;BME280;65157;50.082;18.178;2023-01-29T12:47:59;100052.46;;;1.62;58.66
76337;BME280;65157;50.082;18.178;2023-01-29T12:50:31;100054.92;;;1.69;58.46
76337;BME280;65157;50.082;18.178;2023-01-29T12:53:09;100059.08;;;1.64;58.02
76337;BME280;65157;50.082;18.178;2023-01-29T12:55:44;100058.48;;;1.56;57.49
76337;BME280;65157;50.082;18.178;2023-01-29T12:58:41;100055.98;;;1.45;58.04
76337;BME280;65157;50.082;18.178;2023-01-29T13:01:14;100049.33;;;1.37;58.25
76337;BME280;65157;50.082;18.178;2023-01-29T13:04:05;100040.96;;;1.37;59.10
76337;BME280;65157;50.082;18.178;2023-01-29T13:06:39;100031.66;;;1.49;59.39
76337;BME280;65157;50.082;18.178;2023-01-29T13:09:12;100021.45;;;1.56;58.33
76337;BME280;65157;50.082;18.178;2023-01-29T13:11:46;100015.42;;;1.67;58.24
76337;BME280;65157;50.082;18.178;2023-01-29T13:14:20;100013.39;;;1.77;57.76
76337;BME280;65157;50.082;18.178;2023-01-29T13:16:52;100009.96;;;1.86;58.61
76337;BME280;65157;50.082;18.178;2023-01-29T13:19:34;100004.92;;;1.91;57.57
76337;BME280;65157;50.082;18.178;2023-01-29T13:22:05;100008.62;;;1.98;58.01
76337;BME280;65157;50.082;18.178;2023-01-29T13:24:39;100008.11;;;2.01;57.77
76337;BME280;65157;50.082;18.178;2023-01-29T13:27:15;100006.92;;;2.07;58.57
76337;BME280;65157;50.082;18.178;2023-01-29T13:29:45;99996.65;;;2.11;57.44
76337;BME280;65157;50.082;18.178;2023-01-29T13:32:19;99990.19;;;2.06;57.26
76337;BME280;65157;50.082;18.178;2023-01-29T13:34:48;99991.20;;;1.98;57.79
76337;BME280;65157;50.082;18.178;2023-01-29T13:37:36;99989.79;;;1.91;57.37
76337;BME280;65157;50.082;18.178;2023-01-29T13:40:17;99994.98;;;1.85;57.78
76337;BME280;65157;50.082;18.178;2023-01-29T13:42:46;99996.14;;;1.75;57.90
76337;BME280;65157;50.082;18.178;2023-01-29T13:48:30;99990.98;;;1.52;57.91
76337;BME280;65157;50.082;18.178;2023-01-29T13:51:02;99984.77;;;1.34;58.61
76337;BME280;65157;50.082;18.178;2023-01-29T13:53:39;99977.23;;;1.24;59.43
76337;BME280;65157;50.082;18.178;2023-01-29T13:58:59;99970.46;;;1.02;59.60
76337;BME280;65157;50.082;18.178;2023-01-29T14:06:47;99967.92;;;0.88;60.93
76337;BME280;65157;50.082;18.178;2023-01-29T14:11:56;99968.20;;;0.79;61.28
76337;BME280;65157;50.082;18.178;2023-01-29T14:17:16;99971.59;;;0.70;62.09
76337;BME280;65157;50.082;18.178;2023-01-29T14:19:56;99967.90;;;0.66;62.24
76337;BME280;65157;50.082;18.178;2023-01-29T14:22:27;99968.02;;;0.59;62.07
76337;BME280;65157;50.082;18.178;2023-01-29T14:25:03;99968.27;;;0.50;62.41
76337;BME280;65157;50.082;18.178;2023-01-29T14:27:31;99972.90;;;0.42;62.26
76337;BME280;65157;50.082;18.178;2023-01-29T14:30:05;99969.16;;;0.34;62.24
76337;BME280;65157;50.082;18.178;2023-01-29T14:32:33;99967.85;;;0.25;62.37
76337;BME280;65157;50.082;18.178;2023-01-29T14:35:09;99966.20;;;0.17;62.46